Flight Track Log - Related Links

Times and Time Zones

All times are in EDT time to prevent confusion due to time zone crossing. See the CPA80 flight status page for this flight to view local times or setup timezone preferences in your user account.

Time Position Orientation Groundspeed Altitude Reporting Facility
EDT Latitude Longitude Course Direction KTS MPH feet Rate Location/Type
Fri 03:54:35 PM 61.3000 -149.9167 84° East 290 334 6,200  Level Anchorage Center
Fri 03:55:36 PM 61.2833 -149.7500 102° East 290 334 8,500 2,132 Climbing Anchorage Center
Fri 03:56:36 PM 61.2500 -149.5833 113° Southeast 290 334 10,500 1,400 Climbing Anchorage Center
Fri 03:57:00 PM 61.0167 -148.3169 90° East  Level FlightAware
Fri 03:57:36 PM 61.2500 -149.4000 90° East 330 380 11,300  Level Anchorage Center
Fri 03:58:00 PM 61.0167 -148.0239 90° East  Level FlightAware
Fri 03:58:36 PM 61.2500 -149.2167 90° East 360 414 12,300  Level Anchorage Center
Fri 03:59:00 PM 61.0252 -147.7318 84° East  Level FlightAware
Fri 03:59:36 PM 61.2500 -149.0000 90° East 390 449 14,200  Level Anchorage Center
Fri 04:00:36 PM 61.2500 -148.7667 90° East 390 449 16,000 2,000 Climbing Anchorage Center
Fri 04:01:36 PM 61.2500 -148.5333 90° East 410 472 18,200 1,850 Climbing Anchorage Center
Fri 04:02:36 PM 61.2333 -148.2833 98° East 430 495 19,700 1,600 Climbing Anchorage Center
Fri 04:03:36 PM 61.2333 -148.0333 90° East 440 506 21,400 1,750 Climbing Anchorage Center
Fri 04:04:36 PM 61.2333 -147.7667 90° East 450 518 23,200 1,686 Climbing Anchorage Center
Fri 04:05:37 PM 61.2333 -147.4667 90° East 460 529 24,800 1,240 Climbing Anchorage Center
Fri 04:06:37 PM 61.2333 -147.2167 90° East 460 529 25,700 1,200 Climbing Anchorage Center
Fri 04:07:37 PM 61.2167 -146.9500 97° East 470 541 27,200 1,200 Climbing Anchorage Center
Fri 04:08:37 PM 61.2167 -146.6667 90° East 480 552 28,100 1,000 Climbing Anchorage Center
Fri 04:09:37 PM 61.2000 -146.3833 97° East 490 564 29,200 1,400 Climbing Anchorage Center
Fri 04:10:37 PM 61.2000 -146.1000 90° East 500 575 30,900 1,600 Climbing Anchorage Center
Fri 04:11:37 PM 61.1833 -145.8000 96° East 490 564 32,400 1,050 Climbing Anchorage Center
Fri 04:12:37 PM 61.1833 -145.5167 90° East 500 575 33,000 298 Climbing Anchorage Center
Fri 04:13:38 PM 61.1667 -145.2167 96° East 500 575 33,000  Level Anchorage Center
Fri 04:14:38 PM 61.1500 -144.9333 97° East 490 564 33,000  Level Anchorage Center
Fri 04:15:38 PM 61.1500 -144.6500 90° East 500 575 33,000  Level Anchorage Center
Fri 04:16:38 PM 61.1333 -144.3500 96° East 500 575 33,000  Level Anchorage Center
Fri 04:17:38 PM 61.1167 -144.0667 97° East 500 575 33,000  Level Anchorage Center
Fri 04:18:38 PM 61.1167 -143.7667 90° East 500 575 33,000  Level Anchorage Center
Fri 04:19:38 PM 61.1000 -143.4833 97° East 500 575 33,000  Level Anchorage Center
Fri 04:20:38 PM 61.0833 -143.2000 97° East 500 575 33,000  Level Anchorage Center
Fri 04:21:38 PM 61.0667 -142.8833 96° East 490 564 33,000  Level Anchorage Center
Fri 04:22:39 PM 61.0500 -142.6000 97° East 490 564 33,000  Level Anchorage Center
Fri 04:23:39 PM 61.0333 -142.3167 97° East 500 575 33,000  Level Anchorage Center
Fri 04:24:39 PM 61.0167 -142.0667 98° East 490 564 33,000  Level Anchorage Center
Fri 04:25:39 PM 61.0000 -141.8167 98° East 490 564 33,000  Level Anchorage Center
Fri 04:26:39 PM 60.9833 -141.5333 97° East 490 564 33,000  Level Anchorage Center
Fri 04:27:39 PM 60.9667 -141.2500 97° East 490 564 33,000  Level Anchorage Center
Fri 04:28:39 PM 60.9500 -140.9667 97° East 490 564 33,000  Level Anchorage Center
Fri 04:29:39 PM 60.9333 -140.6833 97° East 490 564 33,000  Level Anchorage Center
Fri 04:30:39 PM 60.9333 -140.4167 90° East 480 552 33,000  Level Anchorage Center
Fri 04:31:39 PM 60.9167 -140.1500 97° East 470 541 33,000 25 Level Anchorage Center
Fri 04:33:00 PM 60.8996 -139.7576 95° East  Level FlightAware
Fri 04:40:00 PM 60.7957 -137.7298 95° East  Level FlightAware
Fri 04:41:00 PM 60.7784 -137.4412 97° East  Level FlightAware
Fri 04:42:00 PM 60.7604 -137.1530 97° East  Level FlightAware
Fri 04:43:00 PM 60.7419 -136.8651 97° East  Level FlightAware
Fri 04:44:00 PM 60.7227 -136.5775 98° East  Level FlightAware
Fri 04:45:00 PM 60.7029 -136.2903 98° East  Level FlightAware
Fri 04:46:00 PM 60.6825 -136.0034 98° East  Level FlightAware
Fri 04:47:00 PM 60.6615 -135.7169 98° East  Level FlightAware
Fri 04:48:00 PM 60.6398 -135.4308 99° East  Level FlightAware
Fri 04:49:00 PM 60.6176 -135.1451 99° East  Level FlightAware
Fri 04:50:00 PM 60.6048 -134.8572 95° East  Level FlightAware
Fri 04:51:00 PM 60.5918 -134.5694 95° East  Level FlightAware
Fri 04:52:00 PM 60.5782 -134.2818 95° East  Level FlightAware
Fri 04:53:00 PM 60.5639 -133.9945 96° East  Level FlightAware
Fri 04:54:00 PM 60.5490 -133.7074 96° East  Level FlightAware
Fri 04:55:00 PM 60.5336 -133.4206 96° East  Level FlightAware
Fri 04:56:00 PM 60.5175 -133.1341 96° East  Level FlightAware
Fri 04:57:00 PM 60.5008 -132.8479 97° East  Level FlightAware
Fri 04:58:00 PM 60.4835 -132.5619 97° East  Level FlightAware
Fri 04:59:00 PM 60.4656 -132.2763 97° East  Level FlightAware
Fri 05:00:00 PM 60.4470 -131.9910 97° East  Level FlightAware
Fri 05:01:00 PM 60.4279 -131.7061 98° East  Level FlightAware
Fri 05:02:00 PM 60.4081 -131.4214 98° East  Level FlightAware
Fri 05:03:00 PM 60.3878 -131.1372 98° East  Level FlightAware
Fri 05:04:00 PM 60.3668 -130.8533 98° East  Level FlightAware
Fri 05:05:00 PM 60.3452 -130.5697 99° East  Level FlightAware
Fri 05:06:00 PM 60.3231 -130.2866 99° East  Level FlightAware
Fri 05:07:00 PM 60.3003 -130.0038 99° East  Level FlightAware
Fri 05:08:00 PM 60.2775 -129.7213 99° East  Level FlightAware
Fri 05:09:00 PM 60.2540 -129.4391 99° East  Level FlightAware
Fri 05:10:00 PM 60.2299 -129.1574 100° East  Level FlightAware
Fri 05:11:00 PM 60.2053 -128.8760 100° East  Level FlightAware
Fri 05:12:00 PM 60.1801 -128.5952 100° East  Level FlightAware
Fri 05:13:00 PM 60.1542 -128.3147 100° East  Level FlightAware
Fri 05:14:00 PM 60.1278 -128.0347 101° East  Level FlightAware
Fri 05:15:00 PM 60.1008 -127.7551 101° East  Level FlightAware
Fri 05:16:00 PM 60.0732 -127.4760 101° East  Level FlightAware
Fri 05:17:00 PM 60.0450 -127.1974 101° East  Level FlightAware
Fri 05:18:00 PM 60.0162 -126.9193 102° East  Level FlightAware
Fri 05:19:00 PM 59.9869 -126.6416 102° East  Level FlightAware
Fri 05:20:00 PM 59.9569 -126.3645 102° East  Level FlightAware
Fri 05:21:00 PM 59.9262 -126.0879 103° East  Level FlightAware
Fri 05:22:00 PM 59.8942 -125.8121 103° East  Level FlightAware
Fri 05:23:00 PM 59.8617 -125.5369 103° East  Level FlightAware
Fri 05:24:00 PM 59.8285 -125.2623 103° East  Level FlightAware
Fri 05:25:00 PM 59.7948 -124.9882 104° East  Level FlightAware
Fri 05:26:00 PM 59.7606 -124.7147 104° East  Level FlightAware
Fri 05:27:00 PM 59.7257 -124.4417 104° East  Level FlightAware
Fri 05:28:00 PM 59.6903 -124.1693 104° East  Level FlightAware
Fri 05:29:00 PM 59.6544 -123.8974 105° East  Level FlightAware
Fri 05:30:00 PM 59.6179 -123.6262 105° East  Level FlightAware
Fri 05:31:00 PM 59.5808 -123.3556 105° East  Level FlightAware
Fri 05:32:00 PM 59.5431 -123.0855 105° East  Level FlightAware
Fri 05:33:00 PM 59.5049 -122.8161 106° East  Level FlightAware
Fri 05:34:00 PM 59.4662 -122.5472 106° East  Level FlightAware
Fri 05:35:00 PM 59.4269 -122.2790 106° East  Level FlightAware
Fri 05:36:00 PM 59.3870 -122.0115 106° East  Level FlightAware
Fri 05:37:00 PM 59.3466 -121.7445 106° East  Level FlightAware
Fri 05:38:00 PM 59.3057 -121.4782 107° East  Level FlightAware
Fri 05:39:00 PM 59.2642 -121.2125 107° East  Level FlightAware
Fri 05:40:00 PM 59.2222 -120.9475 107° East  Level FlightAware
Fri 05:41:00 PM 59.1796 -120.6832 107° East  Level FlightAware
Fri 05:42:00 PM 59.1366 -120.4195 108° East  Level FlightAware
Fri 05:43:00 PM 59.0929 -120.1564 108° East  Level FlightAware
Fri 05:44:00 PM 59.0493 -119.8938 108° East  Level FlightAware
Fri 05:45:00 PM 59.0058 -119.6313 108° East  Level FlightAware
Fri 05:46:00 PM 58.9618 -119.3695 108° East  Level FlightAware
Fri 05:47:00 PM 58.9173 -119.1084 108° East  Level FlightAware
Fri 05:48:00 PM 58.8723 -118.8479 108° East  Level FlightAware
Fri 05:49:00 PM 58.8267 -118.5882 109° East  Level FlightAware
Fri 05:50:00 PM 58.7806 -118.3291 109° East  Level FlightAware
Fri 05:51:00 PM 58.7340 -118.0707 109° East  Level FlightAware
Fri 05:51:15 PM 58.7333 -118.1333 105° East 520 598 35,000  Level Edmonton Center
Fri 05:52:00 PM 58.6869 -117.8130 109° East  Level FlightAware
Fri 05:52:15 PM 58.6833 -117.8833 111° Southeast 500 575 35,000  Level Edmonton Center
Fri 05:53:00 PM 58.6393 -117.5560 110° East  Level FlightAware
Fri 05:53:15 PM 58.6167 -117.6333 117° Southeast 510 587 35,000  Level Edmonton Center
Fri 05:54:00 PM 58.5911 -117.2997 110° East  Level FlightAware
Fri 05:54:15 PM 58.5833 -117.3500 103° East 510 587 35,000  Level Edmonton Center
Fri 05:55:00 PM 58.5444 -117.0429 105° East  Level FlightAware
Fri 05:55:15 PM 58.5333 -117.1000 111° Southeast 510 587 35,000  Level Edmonton Center
Fri 05:56:00 PM 58.5077 -116.7804 105° East  Level FlightAware
Fri 05:56:15 PM 58.5000 -116.8333 103° East 520 598 35,000  Level Edmonton Center
Fri 05:57:15 PM 58.4667 -116.5833 104° East 510 587 35,000  Level Edmonton Center
Fri 05:58:15 PM 58.4167 -116.2833 108° East 520 598 35,000  Level Edmonton Center
Fri 05:59:15 PM 58.4000 -116.0333 97° East 520 598 35,000  Level Edmonton Center
Fri 06:00:15 PM 58.3500 -115.7667 110° East 520 598 35,000  Level Edmonton Center
Fri 06:01:15 PM 58.3167 -115.5000 103° East 510 587 35,000  Level Edmonton Center
Fri 06:02:15 PM 58.2667 -115.2167 108° East 520 598 35,000  Level Edmonton Center
Fri 06:03:15 PM 58.2333 -114.9500 103° East 520 598 35,000  Level Edmonton Center
Fri 06:04:15 PM 58.2000 -114.6833 103° East 520 598 35,000  Level Edmonton Center
Fri 06:05:15 PM 58.1500 -114.4333 111° Southeast 510 587 35,000  Level Edmonton Center
Fri 06:06:15 PM 58.1167 -114.1667 103° East 520 598 35,000  Level Edmonton Center
Fri 06:07:15 PM 58.0667 -113.9000 109° East 510 587 35,000  Level Edmonton Center
Fri 06:08:15 PM 58.0167 -113.6667 112° Southeast 520 598 35,000  Level Edmonton Center
Fri 06:09:15 PM 57.9833 -113.3667 102° East 520 598 35,000  Level Edmonton Center
Fri 06:10:15 PM 57.9333 -113.1167 111° Southeast 510 587 35,000  Level Edmonton Center
Fri 06:11:15 PM 57.9000 -112.8667 104° East 520 598 35,000  Level Edmonton Center
Fri 06:12:15 PM 57.8500 -112.5833 108° East 520 598 35,000  Level Edmonton Center
Fri 06:13:15 PM 57.8000 -112.3667 113° Southeast 510 587 35,000  Level Edmonton Center
Fri 06:14:15 PM 57.7500 -112.1000 109° East 520 598 35,000  Level Edmonton Center
Fri 06:15:15 PM 57.7000 -111.8333 109° East 520 598 35,000  Level Edmonton Center
Fri 06:16:15 PM 57.6667 -111.5667 103° East 520 598 35,000  Level Edmonton Center
Fri 06:17:15 PM 57.6167 -111.3000 109° East 520 598 35,000  Level Edmonton Center
Fri 06:18:15 PM 57.5500 -111.0333 115° Southeast 520 598 35,000  Level Edmonton Center
Fri 06:19:15 PM 57.5167 -110.7833 104° East 520 598 35,000  Level Edmonton Center
Fri 06:20:15 PM 57.4667 -110.5167 109° East 520 598 35,000  Level Edmonton Center
Fri 06:21:15 PM 57.4000 -110.2833 118° Southeast 520 598 35,000  Level Edmonton Center
Fri 06:22:15 PM 57.3333 -110.0500 118° Southeast 520 598 35,000  Level Edmonton Center
Fri 06:23:15 PM 57.2667 -109.8000 116° Southeast 510 587 35,000  Level Edmonton Center
Fri 06:24:15 PM 57.2000 -109.5667 118° Southeast 520 598 35,000  Level Edmonton Center
Fri 06:25:15 PM 57.1167 -109.3333 123° Southeast 520 598 35,000  Level Edmonton Center
Fri 06:26:15 PM 57.0500 -109.1167 119° Southeast 520 598 35,000  Level Edmonton Center
Fri 06:27:15 PM 56.9833 -108.8833 118° Southeast 520 598 35,000  Level Edmonton Center
Fri 06:28:15 PM 56.9000 -108.6333 121° Southeast 520 598 35,000  Level Edmonton Center
Fri 06:29:15 PM 56.8333 -108.4000 117° Southeast 530 610 35,000  Level Edmonton Center
Fri 06:30:15 PM 56.7667 -108.1500 116° Southeast 530 610 35,000  Level Edmonton Center
Fri 06:31:15 PM 56.6833 -107.9333 125° Southeast 530 610 35,000  Level Edmonton Center
Fri 06:32:15 PM 56.6167 -107.7000 117° Southeast 530 610 35,000  Level Edmonton Center
Fri 06:33:15 PM 56.5333 -107.4500 121° Southeast 530 610 35,000  Level Edmonton Center
Fri 06:34:15 PM 56.4667 -107.2000 116° Southeast 530 610 35,000  Level Edmonton Center
Fri 06:35:15 PM 56.4000 -106.9833 119° Southeast 530 610 35,000  Level Edmonton Center
Fri 06:36:15 PM 56.3000 -106.7333 126° Southeast 530 610 35,000  Level Edmonton Center
Fri 06:37:15 PM 56.2333 -106.5167 119° Southeast 530 610 35,000  Level Edmonton Center
Fri 06:38:15 PM 56.1500 -106.2667 121° Southeast 540 621 35,000  Level Edmonton Center
Fri 06:39:14 PM 56.0833 -106.1000 126° Southeast 540 621 35,000  Level Winnipeg Center
Fri 06:40:14 PM 56.0000 -105.8667 122° Southeast 550 633 35,000  Level Winnipeg Center
Fri 06:41:14 PM 55.9000 -105.6333 127° Southeast 540 621 35,000  Level Winnipeg Center
Fri 06:42:14 PM 55.8167 -105.4333 127° Southeast 550 633 35,000  Level Winnipeg Center
Fri 06:43:14 PM 55.7333 -105.2000 122° Southeast 550 633 35,000  Level Winnipeg Center
Fri 06:44:14 PM 55.6500 -104.9833 124° Southeast 550 633 35,000  Level Winnipeg Center
Fri 06:45:14 PM 55.5667 -104.7500 122° Southeast 550 633 35,000  Level Winnipeg Center
Fri 06:46:14 PM 55.4667 -104.5333 129° Southeast 550 633 35,000  Level Winnipeg Center
Fri 06:47:14 PM 55.3833 -104.3000 122° Southeast 550 633 35,000  Level Winnipeg Center
Fri 06:48:14 PM 55.2833 -104.0833 129° Southeast 550 633 35,000  Level Winnipeg Center
Fri 06:49:14 PM 55.2000 -103.8833 126° Southeast 560 644 35,000  Level Winnipeg Center
Fri 06:50:14 PM 55.1000 -103.6333 125° Southeast 560 644 35,000  Level Winnipeg Center
Fri 06:51:14 PM 55.0167 -103.4167 124° Southeast 560 644 35,000  Level Winnipeg Center
Fri 06:52:14 PM 54.9167 -103.2333 133° Southeast 560 644 35,000  Level Winnipeg Center
Fri 06:53:14 PM 54.8167 -103.0167 129° Southeast 560 644 35,000  Level Winnipeg Center
Fri 06:54:14 PM 54.7333 -102.8000 124° Southeast 560 644 35,000  Level Winnipeg Center
Fri 06:55:14 PM 54.6333 -102.5833 129° Southeast 560 644 35,000  Level Winnipeg Center
Fri 06:56:14 PM 54.5500 -102.3667 123° Southeast 560 644 35,000  Level Winnipeg Center
Fri 06:57:14 PM 54.4333 -102.1500 133° Southeast 560 644 35,000  Level Winnipeg Center
Fri 06:58:14 PM 54.3500 -101.9333 123° Southeast 560 644 35,000  Level Winnipeg Center
Fri 06:59:14 PM 54.2500 -101.7500 133° Southeast 560 644 35,000  Level Winnipeg Center
Fri 07:00:14 PM 54.1667 -101.5333 123° Southeast 550 633 35,000  Level Winnipeg Center
Fri 07:01:14 PM 54.0667 -101.3333 130° Southeast 550 633 35,000  Level Winnipeg Center
Fri 07:02:14 PM 53.9667 -101.1167 128° Southeast 550 633 35,000  Level Winnipeg Center
Fri 07:03:14 PM 53.8500 -100.9667 143° Southeast 540 621 35,000  Level Winnipeg Center
Fri 07:04:14 PM 53.7167 -100.8333 149° Southeast 550 633 35,000  Level Winnipeg Center
Fri 07:05:14 PM 53.5833 -100.7167 153° Southeast 520 598 35,000  Level Winnipeg Center
Fri 07:06:14 PM 53.4667 -100.6000 149° Southeast 520 598 35,000  Level Winnipeg Center
Fri 07:07:14 PM 53.3500 -100.4500 142° Southeast 530 610 35,000  Level Winnipeg Center
Fri 07:08:14 PM 53.2333 -100.3167 146° Southeast 520 598 35,000  Level Winnipeg Center
Fri 07:09:14 PM 53.1000 -100.2000 152° Southeast 530 610 35,000  Level Winnipeg Center
Fri 07:10:14 PM 52.9667 -100.0833 152° Southeast 520 598 35,000  Level Winnipeg Center
Fri 07:11:14 PM 52.8333 -99.9500 149° Southeast 530 610 35,000  Level Winnipeg Center
Fri 07:12:14 PM 52.7167 -99.8333 149° Southeast 530 610 35,000  Level Winnipeg Center
Fri 07:13:14 PM 52.6000 -99.7000 145° Southeast 520 598 35,000  Level Winnipeg Center
Fri 07:14:14 PM 52.4667 -99.5667 149° Southeast 520 598 35,000  Level Winnipeg Center
Fri 07:15:14 PM 52.3500 -99.4667 152° Southeast 520 598 35,000  Level Winnipeg Center
Fri 07:16:14 PM 52.2167 -99.3500 152° Southeast 520 598 35,000  Level Winnipeg Center
Fri 07:17:14 PM 52.1000 -99.2000 142° Southeast 530 610 35,000  Level Winnipeg Center
Fri 07:18:14 PM 51.9667 -99.0833 152° Southeast 530 610 35,000  Level Winnipeg Center
Fri 07:19:14 PM 51.8500 -98.9667 148° Southeast 530 610 35,000  Level Winnipeg Center
Fri 07:20:14 PM 51.7167 -98.8333 148° Southeast 530 610 35,000  Level Winnipeg Center
Fri 07:21:14 PM 51.5833 -98.7167 151° Southeast 520 598 35,000  Level Winnipeg Center
Fri 07:22:14 PM 51.4500 -98.6000 151° Southeast 520 598 35,000  Level Winnipeg Center
Fri 07:23:14 PM 51.3500 -98.5000 148° Southeast 520 598 35,000 200 Level Winnipeg Center
Fri 07:24:14 PM 51.2333 -98.3500 141° Southeast 520 598 35,400 750 Climbing Winnipeg Center
Fri 07:25:14 PM 51.1000 -98.2500 155° Southeast 520 598 36,500 800 Climbing Winnipeg Center
Fri 07:26:14 PM 50.9667 -98.1333 151° Southeast 530 610 37,000 250 Climbing Winnipeg Center
Fri 07:27:14 PM 50.8333 -98.0000 148° Southeast 530 610 37,000  Level Winnipeg Center
Fri 07:28:14 PM 50.7167 -97.8833 148° Southeast 530 610 37,000  Level Winnipeg Center
Fri 07:29:14 PM 50.6000 -97.7833 151° Southeast 530 610 37,000  Level Winnipeg Center
Fri 07:30:14 PM 50.4667 -97.6500 148° Southeast 530 610 37,000  Level Winnipeg Center
Fri 07:31:14 PM 50.3333 -97.5500 154° Southeast 530 610 37,000  Level Winnipeg Center
Fri 07:32:14 PM 50.2000 -97.4167 147° Southeast 530 610 37,000  Level Winnipeg Center
Fri 07:33:14 PM 50.0833 -97.3000 147° Southeast 530 610 37,000  Level Winnipeg Center
Fri 07:34:14 PM 49.9500 -97.2000 154° Southeast 530 610 37,000  Level Winnipeg Center
Fri 07:35:14 PM 49.8333 -97.1000 151° Southeast 530 610 37,000  Level Winnipeg Center
Fri 07:36:14 PM 49.7000 -96.9667 147° Southeast 530 610 37,000  Level Winnipeg Center
Fri 07:37:14 PM 49.5667 -96.8667 154° Southeast 530 610 37,000  Level Winnipeg Center
Fri 07:38:14 PM 49.4333 -96.7333 147° Southeast 530 610 37,000  Level Winnipeg Center
Fri 07:39:14 PM 49.3167 -96.6333 151° Southeast 530 610 37,000  Level Winnipeg Center
Fri 07:40:14 PM 49.1833 -96.5333 154° Southeast 530 610 37,000  Level Winnipeg Center
Fri 07:41:14 PM 49.0333 -96.4000 150° Southeast 530 610 37,000  Level Winnipeg Center
Fri 07:42:14 PM 48.9000 -96.3000 154° Southeast 530 610 37,000  Level Winnipeg Center
Fri 07:43:14 PM 48.7833 -96.2000 151° Southeast 530 610 37,000  Level Winnipeg Center
Fri 07:44:14 PM 48.6667 -96.0833 147° Southeast 530 610 37,000  Level Winnipeg Center
Fri 07:44:57 PM 48.6222 -96.0144 134° Southeast 528 608 37,000  Level Minneapolis Center
Fri 07:45:59 PM 48.4936 -95.8311 137° Southeast 529 609 37,000  Level Minneapolis Center
Fri 07:47:01 PM 48.3861 -95.6800 137° Southeast 528 608 37,000  Level Minneapolis Center
Fri 07:48:03 PM 48.2797 -95.5319 137° Southeast 526 605 37,000  Level Minneapolis Center
Fri 07:49:05 PM 48.1669 -95.3769 137° Southeast 526 605 37,000  Level Minneapolis Center
Fri 07:50:07 PM 48.0583 -95.2311 138° Southeast 526 605 37,000  Level Minneapolis Center
Fri 07:51:09 PM 47.9511 -95.0842 137° Southeast 525 604 37,000  Level Minneapolis Center
Fri 07:52:11 PM 47.8444 -94.9383 137° Southeast 524 603 37,000  Level Minneapolis Center
Fri 07:53:13 PM 47.7367 -94.7933 138° Southeast 524 603 37,000  Level Minneapolis Center
Fri 07:54:15 PM 47.6072 -94.6206 138° Southeast 524 603 37,000  Level Minneapolis Center
Fri 07:55:17 PM 47.5003 -94.4769 138° Southeast 522 601 37,000  Level Minneapolis Center
Fri 07:56:19 PM 47.3942 -94.3336 138° Southeast 521 600 37,000  Level Minneapolis Center
Fri 07:57:21 PM 47.2883 -94.1925 138° Southeast 519 597 37,000  Level Minneapolis Center
Fri 07:58:22 PM 47.1819 -94.0553 139° Southeast 516 594 37,000  Level Minneapolis Center
Fri 07:59:24 PM 47.0547 -93.8894 138° Southeast 514 592 37,000  Level Minneapolis Center
Fri 08:00:26 PM 46.9486 -93.7533 139° Southeast 513 590 37,000  Level Minneapolis Center
Fri 08:01:28 PM 46.8431 -93.6175 139° Southeast 512 589 37,000  Level Minneapolis Center
Fri 08:02:30 PM 46.7372 -93.4844 139° Southeast 509 586 37,000  Level Minneapolis Center
Fri 08:03:32 PM 46.6308 -93.3519 139° Southeast 507 583 37,000  Level Minneapolis Center
Fri 08:04:34 PM 46.5031 -93.1928 139° Southeast 507 583 37,000  Level Minneapolis Center
Fri 08:05:36 PM 46.3975 -93.0586 139° Southeast 507 583 37,000  Level Minneapolis Center
Fri 08:06:38 PM 46.2903 -92.9283 140° Southeast 506 582 37,000  Level Minneapolis Center
Fri 08:07:40 PM 46.1747 -92.7817 139° Southeast 509 586 37,000  Level Minneapolis Center
Fri 08:08:42 PM 46.0664 -92.6522 140° Southeast 508 585 37,000  Level Minneapolis Center
Fri 08:09:44 PM 45.9581 -92.5206 140° Southeast 510 587 37,000  Level Minneapolis Center
Fri 08:10:46 PM 45.8497 -92.3908 140° Southeast 508 585 37,000  Level Minneapolis Center
Fri 08:11:48 PM 45.7422 -92.2608 140° Southeast 507 583 37,000  Level Minneapolis Center
Fri 08:12:50 PM 45.6122 -92.1047 140° Southeast 508 585 37,000  Level Minneapolis Center
Fri 08:13:52 PM 45.5028 -91.9758 140° Southeast 510 587 37,000  Level Minneapolis Center
Fri 08:14:54 PM 45.3967 -91.8497 140° Southeast 502 578 37,000  Level Minneapolis Center
Fri 08:15:56 PM 45.2858 -91.7211 141° Southeast 508 585 37,000  Level Minneapolis Center
Fri 08:16:58 PM 45.1767 -91.5928 140° Southeast 508 585 37,000  Level Minneapolis Center
Fri 08:18:00 PM 45.0492 -91.4469 141° Southeast 514 592 37,000 -532 Level Minneapolis Center
Fri 08:19:02 PM 44.9358 -91.3161 141° Southeast 506 582 35,900 -1,113 Descending Minneapolis Center
Fri 08:20:04 PM 44.8250 -91.1911 141° Southeast 504 580 34,700 -823 Descending Minneapolis Center
Fri 08:21:06 PM 44.7183 -91.0686 141° Southeast 500 575 34,200 -484 Descending Minneapolis Center
Fri 08:22:08 PM 44.6114 -90.9458 141° Southeast 499 574 33,700 -484 Descending Minneapolis Center
Fri 08:23:10 PM 44.4892 -90.8086 141° Southeast 498 573 33,200 -532 Descending Minneapolis Center
Fri 08:24:12 PM 44.3819 -90.6878 141° Southeast 495 570 32,600 -629 Descending Minneapolis Center
Fri 08:25:14 PM 44.2722 -90.5658 141° Southeast 489 563 31,900 -576 Descending Minneapolis Center
Fri 08:26:17 PM 44.1700 -90.4517 141° Southeast 488 562 31,400 -432 Descending Minneapolis Center
Fri 08:27:19 PM 44.0658 -90.3361 141° Southeast 482 555 31,000 -339 Descending Minneapolis Center
Fri 08:28:21 PM 43.9622 -90.2217 141° Southeast 476 548 30,700 -435 Descending Minneapolis Center
Fri 08:29:23 PM 43.8419 -90.0900 142° Southeast 474 545 30,100 -484 Descending Minneapolis Center
Fri 08:30:25 PM 43.7364 -89.9761 142° Southeast 480 552 29,700 -1,113 Descending Minneapolis Center
Fri 08:31:27 PM 43.6317 -89.8608 141° Southeast 480 552 27,800 -2,081 Descending Minneapolis Center
Fri 08:32:29 PM 43.5278 -89.7500 142° Southeast 478 550 25,400 -1,355 Descending Minneapolis Center
Fri 08:33:31 PM 43.4269 -89.6406 142° Southeast 469 540 25,000 -581 Descending Minneapolis Center
Fri 08:34:33 PM 43.3094 -89.5161 142° Southeast 461 531 24,200 -1,839 Descending Minneapolis Center
Fri 08:35:35 PM 43.2117 -89.4103 142° Southeast 454 522 21,200 -2,613 Descending Minneapolis Center
Fri 08:36:37 PM 43.1147 -89.3325 150° Southeast 420 483 18,800 -2,047 Descending Minneapolis Center
Fri 08:37:44 PM 42.9953 -89.2800 162° South 385 443 16,800 -1,814 Descending Chicago Center
Fri 08:38:46 PM 42.8972 -89.2381 163° South 373 429 14,900 -1,790 Descending Chicago Center
Fri 08:39:48 PM 42.8028 -89.2022 164° South 357 411 13,100 -1,016 Descending Chicago Center
Fri 08:40:50 PM 42.7125 -89.1675 164° South 339 390 12,800 -435 Descending Chicago Center
Fri 08:41:52 PM 42.6244 -89.2133 201° Southwest 297 342 12,200 -532 Descending Chicago Center
Fri 08:42:54 PM 42.5422 -89.2142 180° South 305 351 11,700 -484 Descending Chicago Center
Fri 08:43:56 PM 42.5158 -89.1106 109° East 304 350 11,200 -339 Descending Chicago Center
Fri 08:44:58 PM 42.5233 -88.9969 85° East 304 350 11,000 -97 Descending Chicago Center
Fri 08:46:00 PM 42.5539 -88.8908 69° East 301 346 11,000 -290 Level Chicago Center
Fri 08:47:02 PM 42.5825 -88.7828 70° East 303 349 10,400 -774 Descending Chicago Center
Fri 08:48:04 PM 42.5578 -88.6669 106° East 301 346 9,400 -677 Descending Chicago Center
Fri 08:49:06 PM 42.4894 -88.6086 148° Southeast 292 336 9,000 -192 Descending Chicago Center
Fri 08:50:09 PM 42.4236 -88.5469 145° Southeast 290 334 9,000 -144 Level Chicago Center
Fri 08:51:11 PM 42.3619 -88.4769 140° Southeast 290 334 8,700 -726 Descending Chicago Center
Fri 08:52:13 PM 42.3186 -88.3867 123° Southeast 283 326 7,500 -1,065 Descending Chicago Center
Fri 08:53:15 PM 42.2786 -88.3000 122° Southeast 278 320 6,500 -1,104 Descending Chicago Center
Fri 08:54:18 PM 42.2281 -88.1986 124° Southeast 274 315 5,200 -1,161 Descending Chicago Center
Fri 08:55:19 PM 42.1736 -88.1422 142° Southeast 252 290 4,100 -585 Descending Chicago Center
Fri 08:56:21 PM 42.1289 -88.0889 139° Southeast 226 260 4,000 -450 Descending Chicago Center
Fri 08:57:19 PM 42.0833 -88.0333 138° Southeast 178 205 3,200 -864 Descending Chicago TRACON
Fri 08:58:19 PM 42.0500 -88.0000 143° Southeast 160 184 2,300 -850 Descending Chicago TRACON
Fri 08:59:19 PM 42.0167 -87.9667 143° Southeast 150 173 1,500 -800 Descending Chicago TRACON
Fri 09:01:00 PM 41.9817 -87.9067 180° South  Level Estimated

Login

Don't have an account? Register now (free) for customized features, flight alerts, and more!